Time;durP1;ratioP1;P1;durP2;ratioP2;P2;SDS_P1;SDS_P2;PMS_P1;PMS_P2;Temp;Humidity;BMP_temperature;BMP_pressure;BME280_temperature;BME280_humidity;BME280_pressure;Samples;Min_cycle;Max_cycle;Signal;HPM_P1;HPM_P2
2023/06/07 00:01:27;;;;;;;9.07;3.93;;;17.00;1.00;;;;;;5055726;28;20175;-83
2023/06/07 00:03:53;;;;;;;6.97;4.17;;;17.00;1.00;;;;;;5054973;28;20248;-85
2023/06/07 00:06:19;;;;;;;8.23;3.90;;;17.00;1.00;;;;;;5054380;28;20210;-85
2023/06/07 00:08:44;;;;;;;5.17;4.00;;;17.00;1.00;;;;;;5054401;28;20180;-85
2023/06/07 00:11:10;;;;;;;5.63;3.93;;;16.90;1.00;;;;;;5054415;28;20212;-85
2023/06/07 00:13:36;;;;;;;6.83;3.90;;;16.90;1.00;;;;;;5055155;28;20199;-85
2023/06/07 00:16:02;;;;;;;6.67;3.50;;;16.80;1.00;;;;;;5055017;28;20588;-84
2023/06/07 00:18:28;;;;;;;5.63;3.97;;;16.80;1.00;;;;;;5056166;28;20172;-84
2023/06/07 00:20:53;;;;;;;5.17;3.27;;;16.80;1.00;;;;;;5055634;28;20619;-85
2023/06/07 00:23:20;;;;;;;8.03;4.00;;;16.70;1.00;;;;;;5055095;28;20234;-85
2023/06/07 00:25:46;;;;;;;7.13;4.50;;;16.70;1.00;;;;;;5054181;28;20182;-85
2023/06/07 00:28:12;;;;;;;6.00;3.90;;;16.60;1.00;;;;;;5054660;28;20641;-84
2023/06/07 00:30:38;;;;;;;5.70;3.90;;;16.60;1.00;;;;;;5054669;28;20186;-85
2023/06/07 00:33:04;;;;;;;10.07;4.80;;;16.60;1.00;;;;;;5055164;28;20256;-84
2023/06/07 00:35:30;;;;;;;4.87;3.60;;;16.50;1.00;;;;;;5056347;28;20519;-85
2023/06/07 00:37:55;;;;;;;7.70;4.03;;;16.50;1.00;;;;;;5055764;28;20190;-84
2023/06/07 00:40:22;;;;;;;8.23;4.10;;;16.40;1.00;;;;;;5056197;28;20175;-85
2023/06/07 00:42:48;;;;;;;9.17;4.07;;;16.30;1.00;;;;;;5054181;28;20253;-85
2023/06/07 00:45:13;;;;;;;8.37;4.73;;;16.30;1.00;;;;;;5055415;28;20537;-85
2023/06/07 00:47:39;;;;;;;5.97;4.00;;;16.30;1.00;;;;;;5055264;28;20176;-84
2023/06/07 00:50:06;;;;;;;6.23;4.70;;;16.30;1.00;;;;;;5056907;28;20726;-85
2023/06/07 00:52:35;;;;;;;6.83;4.53;;;16.20;1.00;;;;;;5055449;28;20214;-83
2023/06/07 00:55:02;;;;;;;6.47;4.13;;;16.20;1.00;;;;;;5037116;28;20173;-85
2023/06/07 00:57:35;;;;;;;7.67;4.77;;;16.20;1.00;;;;;;5038407;28;20165;-83
2023/06/07 01:00:09;;;;;;;10.13;4.63;;;16.10;1.00;;;;;;5038832;28;20157;-85
2023/06/07 01:02:35;;;;;;;8.53;4.27;;;16.00;1.00;;;;;;5054084;28;20209;-85
2023/06/07 01:05:02;;;;;;;7.90;4.53;;;16.00;1.00;;;;;;5057044;28;20266;-85
2023/06/07 01:07:28;;;;;;;5.57;4.47;;;15.90;1.00;;;;;;5060118;28;20604;-84
2023/06/07 01:09:54;;;;;;;6.53;4.57;;;15.90;1.00;;;;;;5060355;28;20210;-85
2023/06/07 01:12:19;;;;;;;9.73;4.47;;;15.90;1.00;;;;;;5065878;28;20211;-82
2023/06/07 01:14:49;;;;;;;6.80;4.27;;;15.80;1.00;;;;;;5075113;28;20183;-83
2023/06/07 01:17:18;;;;;;;9.17;4.70;;;15.80;1.00;;;;;;5074583;28;20202;-83
2023/06/07 01:19:52;;;;;;;9.83;4.80;;;15.70;1.00;;;;;;5056939;28;20217;-84
2023/06/07 01:22:21;;;;;;;8.13;5.00;;;15.70;1.00;;;;;;5056861;28;20285;-84
2023/06/07 01:24:47;;;;;;;7.50;4.53;;;15.60;1.00;;;;;;5056768;28;20175;-84
2023/06/07 01:27:15;;;;;;;9.27;4.47;;;15.50;1.00;;;;;;5056698;28;20213;-83
2023/06/07 01:29:41;;;;;;;8.87;4.30;;;15.60;1.00;;;;;;5042936;28;20212;-84
2023/06/07 01:32:09;;;;;;;8.17;4.60;;;15.60;1.00;;;;;;5038068;28;20692;-84
2023/06/07 01:34:35;;;;;;;6.67;4.40;;;15.60;1.00;;;;;;5038269;28;20592;-84
2023/06/07 01:37:02;;;;;;;5.00;4.27;;;15.50;1.00;;;;;;5038496;28;20187;-84
2023/06/07 01:39:30;;;;;;;7.13;4.97;;;15.50;1.00;;;;;;5051791;28;20233;-83
2023/06/07 01:41:58;;;;;;;6.57;4.57;;;15.50;1.00;;;;;;5057888;28;20203;-84
2023/06/07 01:44:24;;;;;;;7.43;4.77;;;15.50;1.00;;;;;;5039562;28;20211;-84
2023/06/07 01:46:49;;;;;;;9.37;4.60;;;15.50;1.00;;;;;;5037618;28;20180;-84
2023/06/07 01:49:18;;;;;;;6.53;4.13;;;15.50;1.00;;;;;;5037399;28;20553;-82
2023/06/07 01:51:44;;;;;;;8.57;4.53;;;15.50;1.00;;;;;;5036546;28;20199;-84
2023/06/07 01:54:10;;;;;;;6.40;4.67;;;15.50;1.00;;;;;;5052748;28;20646;-83
2023/06/07 01:56:39;;;;;;;8.77;4.13;;;15.50;1.00;;;;;;5057875;28;20225;-83
2023/06/07 01:59:27;;;;;;;7.20;4.67;;;15.50;1.00;;;;;;5056058;28;20182;-83
2023/06/07 02:02:30;;;;;;;8.90;4.87;;;15.50;1.00;;;;;;5057194;28;20171;-84
2023/06/07 02:05:02;;;;;;;8.77;4.53;;;15.50;1.00;;;;;;5056957;28;20194;-83
2023/06/07 02:07:32;;;;;;;6.60;4.67;;;15.50;1.00;;;;;;5055881;28;20180;-84
2023/06/07 02:10:01;;;;;;;6.07;4.70;;;15.50;1.00;;;;;;5055639;28;20189;-84
2023/06/07 02:12:28;;;;;;;6.40;4.50;;;15.60;1.00;;;;;;5056371;28;20230;-84
2023/06/07 02:14:57;;;;;;;5.73;4.60;;;15.60;5.30;;;;;;5056363;28;20183;-84
2023/06/07 02:17:23;;;;;;;9.07;4.63;;;15.50;13.00;;;;;;5055700;28;20187;-83
2023/06/07 02:19:48;;;;;;;5.73;4.60;;;15.50;22.00;;;;;;5055729;28;20176;-83
2023/06/07 02:22:15;;;;;;;6.80;4.80;;;15.60;22.40;;;;;;5054988;28;20222;-83
2023/06/07 02:24:41;;;;;;;7.37;5.00;;;15.60;28.50;;;;;;5055533;28;20188;-84
2023/06/07 02:27:10;;;;;;;9.03;4.60;;;15.60;33.30;;;;;;5036008;28;20184;-82
2023/06/07 02:29:36;;;;;;;7.07;4.63;;;15.60;29.30;;;;;;5035471;28;20186;-84
2023/06/07 02:32:01;;;;;;;8.97;4.63;;;15.60;38.00;;;;;;5036684;28;20275;-83
2023/06/07 02:34:29;;;;;;;5.67;4.00;;;15.70;41.10;;;;;;5054742;28;20187;-83
2023/06/07 02:36:55;;;;;;;5.40;4.17;;;15.70;38.30;;;;;;5055182;28;20683;-83
2023/06/07 02:39:21;;;;;;;6.80;4.73;;;15.70;40.80;;;;;;5057335;28;20163;-84
2023/06/07 02:41:47;;;;;;;7.13;4.57;;;15.70;48.20;;;;;;5055366;28;20186;-84
2023/06/07 02:44:12;;;;;;;7.77;4.87;;;15.70;50.00;;;;;;5055892;28;20199;-84
2023/06/07 02:46:38;;;;;;;5.60;4.00;;;15.70;58.30;;;;;;5056550;28;20179;-83
2023/06/07 02:49:03;;;;;;;8.00;4.47;;;15.80;58.30;;;;;;5056781;28;20214;-84
2023/06/07 02:51:29;;;;;;;6.70;4.40;;;15.80;61.50;;;;;;5056886;28;20678;-84
2023/06/07 02:53:56;;;;;;;8.33;4.73;;;15.80;59.90;;;;;;5052544;28;20207;-84
2023/06/07 02:56:23;;;;;;;7.07;4.53;;;15.80;52.90;;;;;;5035371;28;20173;-84
2023/06/07 02:58:49;;;;;;;4.80;4.20;;;15.80;50.50;;;;;;5036906;28;20172;-84
2023/06/07 03:01:14;;;;;;;6.53;5.07;;;15.80;56.90;;;;;;5035247;28;20183;-84
2023/06/07 03:03:42;;;;;;;9.33;4.30;;;15.80;66.90;;;;;;5043424;28;20203;-82
2023/06/07 03:06:09;;;;;;;10.10;4.53;;;15.80;61.90;;;;;;5056515;28;20167;-84
2023/06/07 03:08:35;;;;;;;9.53;4.30;;;15.90;63.70;;;;;;5055760;28;20175;-84
2023/06/07 03:11:01;;;;;;;8.87;4.13;;;15.80;58.10;;;;;;5056424;28;20179;-84
2023/06/07 03:13:27;;;;;;;7.60;3.97;;;15.90;58.10;;;;;;5055401;28;20656;-84
2023/06/07 03:15:52;;;;;;;6.67;4.20;;;15.90;60.50;;;;;;5055853;28;20675;-83
2023/06/07 03:18:19;;;;;;;6.27;4.00;;;15.90;54.50;;;;;;5055936;28;20214;-84
2023/06/07 03:20:45;;;;;;;9.27;4.27;;;15.90;47.00;;;;;;5057091;28;20238;-83
2023/06/07 03:23:11;;;;;;;8.47;4.67;;;15.90;34.20;;;;;;5056330;28;20241;-84
2023/06/07 03:25:37;;;;;;;6.83;3.60;;;15.90;34.70;;;;;;5038457;28;20279;-84
2023/06/07 03:28:03;;;;;;;9.97;4.00;;;15.90;28.10;;;;;;5039551;28;20187;-82
2023/06/07 03:30:29;;;;;;;8.83;4.13;;;15.90;20.30;;;;;;5035344;28;20173;-82
2023/06/07 03:32:55;;;;;;;7.47;4.73;;;16.00;10.50;;;;;;5035693;28;20208;-84
2023/06/07 03:35:20;;;;;;;6.90;4.27;;;15.90;14.50;;;;;;5038139;28;20223;-84
2023/06/07 03:37:46;;;;;;;5.30;4.17;;;15.90;1.00;;;;;;5034812;28;20176;-83
2023/06/07 03:40:12;;;;;;;9.53;4.20;;;15.90;1.00;;;;;;5036947;28;20172;-84
2023/06/07 03:42:39;;;;;;;5.83;4.10;;;16.00;1.00;;;;;;5058500;28;20187;-84
2023/06/07 03:45:05;;;;;;;5.90;4.07;;;16.00;1.00;;;;;;5056039;28;20195;-83
2023/06/07 03:47:31;;;;;;;5.53;4.27;;;16.00;1.00;;;;;;5054403;28;20172;-84
2023/06/07 03:49:57;;;;;;;5.77;3.93;;;16.00;1.00;;;;;;5055008;28;20195;-84
2023/06/07 03:52:23;;;;;;;7.57;4.10;;;16.00;1.00;;;;;;5048707;28;20204;-84
2023/06/07 03:54:48;;;;;;;7.93;4.10;;;16.00;1.00;;;;;;5063813;28;20175;-84
2023/06/07 03:57:14;;;;;;;7.80;4.00;;;16.00;1.00;;;;;;5073440;28;20182;-84
2023/06/07 03:59:40;;;;;;;6.77;4.83;;;16.00;1.50;;;;;;5073813;28;20214;-84
2023/06/07 04:02:06;;;;;;;9.13;3.90;;;16.00;1.20;;;;;;5061409;28;20605;-82
2023/06/07 04:04:32;;;;;;;6.73;3.63;;;16.00;1.00;;;;;;5056085;28;20183;-84
2023/06/07 04:06:58;;;;;;;8.33;4.80;;;16.00;1.00;;;;;;5057129;28;20194;-84
2023/06/07 04:09:24;;;;;;;9.13;4.30;;;16.00;1.00;;;;;;5055908;28;20207;-84
2023/06/07 04:11:50;;;;;;;6.50;4.07;;;16.00;1.00;;;;;;5057349;28;20245;-85
2023/06/07 04:14:16;;;;;;;9.10;4.30;;;16.00;1.00;;;;;;5047901;28;20180;-84
2023/06/07 04:16:42;;;;;;;10.40;3.60;;;16.00;1.00;;;;;;5037236;28;20250;-84
2023/06/07 04:19:07;;;;;;;6.13;3.63;;;16.00;1.00;;;;;;5036532;28;20173;-84
2023/06/07 04:21:33;;;;;;;6.37;3.43;;;16.00;1.00;;;;;;5035919;28;20211;-83
2023/06/07 04:24:00;;;;;;;10.73;3.67;;;16.10;1.00;;;;;;5038130;28;20200;-84
2023/06/07 04:26:30;;;;;;;7.80;4.10;;;16.10;1.00;;;;;;5037598;28;20191;-84
2023/06/07 04:28:57;;;;;;;5.90;3.93;;;16.10;1.00;;;;;;5037277;28;20172;-84
2023/06/07 04:31:29;;;;;;;4.80;3.43;;;16.10;1.00;;;;;;5035956;28;20287;-83
2023/06/07 04:33:57;;;;;;;8.10;4.47;;;16.10;1.00;;;;;;5035962;28;20195;-81
2023/06/07 04:36:25;;;;;;;6.50;3.87;;;16.10;1.00;;;;;;5035777;28;20164;-82
2023/06/07 04:38:52;;;;;;;6.53;3.47;;;16.20;1.00;;;;;;5034218;28;20259;-82
2023/06/07 04:41:18;;;;;;;6.77;3.57;;;16.20;1.00;;;;;;5038291;28;20191;-82
2023/06/07 04:43:48;;;;;;;9.87;3.77;;;16.20;1.00;;;;;;5038633;28;20203;-83
2023/06/07 04:46:15;;;;;;;6.73;4.17;;;16.20;1.00;;;;;;5038190;28;20605;-81
2023/06/07 04:48:41;;;;;;;5.83;3.80;;;16.30;1.00;;;;;;5037297;28;20282;-81
2023/06/07 04:51:07;;;;;;;13.57;4.10;;;16.20;1.00;;;;;;5038039;28;20188;-82
2023/06/07 04:53:36;;;;;;;16.30;4.43;;;16.30;1.00;;;;;;5049222;28;20279;-80
2023/06/07 04:56:03;;;;;;;6.97;4.13;;;16.30;1.00;;;;;;5058186;28;20245;-81
2023/06/07 04:58:30;;;;;;;7.37;4.00;;;16.30;1.00;;;;;;5058153;28;20203;-80
2023/06/07 05:00:56;;;;;;;8.63;3.60;;;16.30;1.00;;;;;;5039401;28;20176;-81
2023/06/07 05:03:24;;;;;;;7.03;4.00;;;16.30;1.00;;;;;;5037199;28;20192;-81
2023/06/07 05:05:50;;;;;;;9.67;3.87;;;16.30;1.00;;;;;;5038302;28;20256;-81
2023/06/07 05:08:17;;;;;;;7.97;3.80;;;16.30;1.00;;;;;;5038972;28;20164;-81
2023/06/07 05:10:43;;;;;;;9.67;4.03;;;16.40;1.00;;;;;;5036875;28;20180;-81
2023/06/07 05:13:08;;;;;;;14.07;5.13;;;16.40;1.00;;;;;;5036324;28;20277;-81
2023/06/07 05:15:34;;;;;;;9.73;4.37;;;16.40;1.00;;;;;;5036813;28;20637;-80
2023/06/07 05:18:01;;;;;;;7.33;4.30;;;16.40;1.00;;;;;;5037770;28;20180;-81
2023/06/07 05:20:27;;;;;;;8.97;4.53;;;16.40;1.00;;;;;;5038758;28;20188;-81
2023/06/07 05:22:53;;;;;;;7.30;4.70;;;16.40;1.00;;;;;;5036388;28;20204;-81
2023/06/07 05:25:19;;;;;;;11.23;5.20;;;16.50;1.00;;;;;;5038018;28;20249;-81
2023/06/07 05:27:45;;;;;;;8.40;4.40;;;16.50;1.00;;;;;;5037921;28;20223;-81
2023/06/07 05:30:11;;;;;;;8.00;4.27;;;16.50;1.00;;;;;;5038115;28;20184;-80
2023/06/07 05:32:37;;;;;;;8.20;4.70;;;16.50;1.00;;;;;;5035932;28;20242;-81
2023/06/07 05:35:03;;;;;;;10.60;5.07;;;16.50;1.00;;;;;;5036961;28;20372;-81
2023/06/07 05:37:30;;;;;;;10.03;4.20;;;16.50;1.00;;;;;;5037622;28;20169;-81
2023/06/07 05:39:56;;;;;;;9.10;5.13;;;16.50;1.00;;;;;;5036716;28;20550;-82
2023/06/07 05:42:22;;;;;;;8.40;4.23;;;16.50;1.00;;;;;;5038755;28;20287;-82
2023/06/07 05:44:49;;;;;;;8.03;4.50;;;16.50;1.00;;;;;;5038831;28;20203;-80
2023/06/07 05:47:15;;;;;;;7.63;4.33;;;16.50;1.00;;;;;;5037059;28;20233;-82
2023/06/07 05:49:44;;;;;;;9.97;5.03;;;16.50;1.00;;;;;;5039252;28;20632;-82
2023/06/07 05:52:10;;;;;;;7.90;4.47;;;16.40;1.00;;;;;;5037214;28;20295;-82
2023/06/07 05:54:39;;;;;;;10.30;4.97;;;16.40;1.00;;;;;;5039186;28;20187;-81
2023/06/07 05:57:06;;;;;;;5.90;4.30;;;16.30;1.00;;;;;;5039296;28;20172;-81
2023/06/07 05:59:32;;;;;;;7.37;4.67;;;16.40;1.00;;;;;;5040306;28;20173;-81
2023/06/07 06:01:57;;;;;;;8.43;4.27;;;16.40;1.00;;;;;;5038299;28;20180;-81
2023/06/07 06:04:24;;;;;;;9.73;5.20;;;16.40;1.00;;;;;;5037673;28;20259;-80
2023/06/07 06:06:50;;;;;;;15.40;5.50;;;16.40;1.00;;;;;;5038347;28;20168;-81
2023/06/07 06:09:16;;;;;;;11.33;5.37;;;16.40;1.00;;;;;;5036400;28;20279;-81
2023/06/07 06:11:42;;;;;;;10.63;5.13;;;16.50;1.00;;;;;;5036489;28;20526;-81
2023/06/07 06:14:08;;;;;;;9.53;5.07;;;16.50;1.00;;;;;;5037976;28;20220;-81
2023/06/07 06:16:33;;;;;;;9.23;5.37;;;16.50;1.00;;;;;;5037928;28;20176;-81
2023/06/07 06:18:59;;;;;;;7.50;4.97;;;16.50;1.00;;;;;;5036132;28;20259;-81
2023/06/07 06:21:25;;;;;;;10.67;5.77;;;16.50;1.00;;;;;;5037759;28;20180;-81
2023/06/07 06:23:51;;;;;;;10.37;5.40;;;16.50;1.00;;;;;;5037354;28;20188;-81
2023/06/07 06:26:16;;;;;;;10.70;5.40;;;16.60;1.00;;;;;;5037250;28;20553;-81
2023/06/07 06:28:42;;;;;;;11.60;5.70;;;16.60;1.00;;;;;;5037919;28;20164;-81
2023/06/07 06:31:07;;;;;;;8.00;5.50;;;16.50;1.00;;;;;;5037353;28;20507;-81
2023/06/07 06:33:33;;;;;;;9.93;5.27;;;16.60;1.00;;;;;;5036921;28;20200;-81
2023/06/07 06:36:02;;;;;;;14.03;6.00;;;16.60;1.00;;;;;;5036663;28;20251;-81
2023/06/07 06:38:27;;;;;;;9.93;5.83;;;16.60;1.00;;;;;;5036872;28;20165;-81
2023/06/07 06:40:53;;;;;;;8.93;4.73;;;16.70;1.00;;;;;;5035561;28;20704;-81
2023/06/07 06:43:18;;;;;;;10.20;5.47;;;16.70;1.00;;;;;;5037284;28;20220;-81
2023/06/07 06:45:44;;;;;;;10.70;5.53;;;16.70;1.00;;;;;;5035294;28;20191;-80
2023/06/07 06:48:10;;;;;;;8.63;5.70;;;16.70;1.00;;;;;;5034873;28;20553;-81
2023/06/07 06:50:36;;;;;;;8.20;5.03;;;16.70;1.00;;;;;;5034989;28;20275;-80
2023/06/07 06:53:01;;;;;;;9.03;5.97;;;16.70;1.00;;;;;;5036469;28;20524;-81
2023/06/07 06:55:28;;;;;;;11.17;5.87;;;16.70;1.00;;;;;;5036361;28;20175;-81
2023/06/07 06:57:54;;;;;;;8.13;5.60;;;16.70;1.00;;;;;;5034678;28;20207;-81
2023/06/07 07:00:20;;;;;;;10.23;5.13;;;16.70;1.00;;;;;;5035823;28;20222;-81
2023/06/07 07:02:46;;;;;;;8.57;4.60;;;16.60;1.00;;;;;;5035448;28;20188;-80
2023/06/07 07:05:11;;;;;;;11.60;5.63;;;16.70;1.00;;;;;;5036072;28;20254;-81
2023/06/07 07:07:37;;;;;;;10.53;5.50;;;16.70;1.00;;;;;;5036806;28;20173;-81
2023/06/07 07:10:04;;;;;;;8.70;5.73;;;16.70;1.00;;;;;;5034443;28;20230;-81
2023/06/07 07:12:29;;;;;;;13.17;5.30;;;16.70;1.00;;;;;;5036015;28;20200;-80
2023/06/07 07:14:55;;;;;;;12.37;5.50;;;16.70;1.00;;;;;;5034713;28;20179;-81
2023/06/07 07:17:20;;;;;;;10.60;5.67;;;16.60;1.00;;;;;;5036000;28;20173;-80
2023/06/07 07:19:46;;;;;;;9.10;4.80;;;16.60;1.00;;;;;;5050997;28;20172;-80
2023/06/07 07:22:12;;;;;;;9.70;5.90;;;16.70;1.00;;;;;;5053648;28;20200;-80
2023/06/07 07:24:38;;;;;;;9.70;5.60;;;16.60;1.00;;;;;;5055558;28;20180;-80
2023/06/07 07:27:05;;;;;;;8.50;5.20;;;16.50;1.00;;;;;;5054322;28;20199;-80
2023/06/07 07:29:31;;;;;;;9.23;5.60;;;16.50;1.00;;;;;;5054579;28;20171;-81
2023/06/07 07:31:57;;;;;;;11.87;6.20;;;16.60;1.00;;;;;;5048244;28;20231;-81
2023/06/07 07:34:22;;;;;;;11.43;5.87;;;16.50;1.00;;;;;;5044628;28;20180;-81
2023/06/07 07:36:50;;;;;;;12.57;6.73;;;16.50;1.00;;;;;;5037058;28;20259;-81
2023/06/07 07:39:15;;;;;;;12.07;6.10;;;16.50;1.00;;;;;;5036681;28;20167;-81
2023/06/07 07:41:41;;;;;;;10.63;6.37;;;16.60;1.00;;;;;;5036908;28;20172;-81
2023/06/07 07:44:07;;;;;;;9.90;5.83;;;16.50;1.00;;;;;;5034628;28;20370;-81
2023/06/07 07:46:33;;;;;;;12.10;6.30;;;16.50;1.00;;;;;;5037027;28;20240;-82
2023/06/07 07:48:58;;;;;;;11.50;6.43;;;16.50;1.00;;;;;;5035213;28;20184;-82
2023/06/07 07:51:24;;;;;;;11.50;6.03;;;16.50;1.00;;;;;;5035904;28;20173;-81
2023/06/07 07:53:53;;;;;;;10.27;5.87;;;16.50;1.00;;;;;;5035245;28;20196;-82
2023/06/07 07:56:21;;;;;;;9.00;6.30;;;16.50;1.00;;;;;;5034618;28;20184;-82
2023/06/07 07:58:47;;;;;;;12.37;5.40;;;16.50;1.00;;;;;;5034971;28;20179;-82
2023/06/07 08:01:16;;;;;;;10.43;5.87;;;16.50;1.00;;;;;;5036248;28;20169;-82
2023/06/07 08:03:41;;;;;;;12.40;6.27;;;16.60;1.00;;;;;;5034626;28;20200;-82
2023/06/07 08:06:07;;;;;;;12.60;7.27;;;16.60;1.00;;;;;;5035202;28;20227;-82
2023/06/07 08:08:33;;;;;;;10.83;6.37;;;16.50;1.00;;;;;;5036642;28;20187;-82
2023/06/07 08:11:00;;;;;;;13.20;7.20;;;16.50;1.00;;;;;;5034530;28;20250;-81
2023/06/07 08:13:26;;;;;;;15.93;6.73;;;16.50;1.00;;;;;;5034279;28;20714;-81
2023/06/07 08:15:51;;;;;;;11.93;6.67;;;16.40;1.00;;;;;;5036008;28;20260;-81
2023/06/07 08:18:17;;;;;;;13.13;7.57;;;16.40;1.00;;;;;;5036279;28;20200;-81
2023/06/07 08:20:43;;;;;;;12.53;6.67;;;16.30;1.00;;;;;;5034800;28;20551;-81
2023/06/07 08:23:09;;;;;;;15.43;7.13;;;16.30;1.00;;;;;;5036411;28;20196;-81
2023/06/07 08:25:34;;;;;;;11.77;7.33;;;16.30;1.00;;;;;;5036859;28;20270;-81
2023/06/07 08:28:00;;;;;;;12.87;7.07;;;16.30;1.00;;;;;;5037721;28;20186;-79
2023/06/07 08:30:25;;;;;;;11.27;6.80;;;16.30;1.00;;;;;;5036577;28;20183;-81
2023/06/07 08:32:51;;;;;;;15.40;7.33;;;16.30;12.20;;;;;;5034705;28;20306;-81
2023/06/07 08:35:17;;;;;;;14.73;7.67;;;16.20;1.00;;;;;;5049965;28;20184;-80
2023/06/07 08:37:42;;;;;;;15.33;8.60;;;16.20;1.00;;;;;;5056768;28;20187;-79
2023/06/07 08:40:09;;;;;;;15.77;8.03;;;16.10;23.20;;;;;;5054982;28;20164;-81
2023/06/07 08:42:35;;;;;;;14.23;7.87;;;16.20;91.00;;;;;;5034967;28;20661;-81
2023/06/07 08:45:01;;;;;;;10.30;7.40;;;16.10;97.40;;;;;;5035478;28;20187;-81
2023/06/07 08:47:28;;;;;;;12.67;7.83;;;16.10;63.10;;;;;;5034859;28;20173;-81
2023/06/07 08:49:57;;;;;;;13.57;7.97;;;16.10;93.50;;;;;;5033328;28;20250;-81
2023/06/07 08:52:24;;;;;;;13.97;8.87;;;16.00;61.10;;;;;;5034932;28;20247;-81
2023/06/07 08:54:54;;;;;;;12.30;8.77;;;16.00;99.90;;;;;;5033863;28;20183;-81
2023/06/07 08:57:20;;;;;;;17.63;9.40;;;16.00;99.90;;;;;;5033691;28;20172;-81
2023/06/07 08:59:48;;;;;;;18.17;9.37;;;16.10;99.90;;;;;;5035236;28;20638;-81
2023/06/07 09:02:14;;;;;;;16.50;8.87;;;16.10;99.90;;;;;;5034862;28;20258;-81
2023/06/07 09:04:40;;;;;;;15.00;8.63;;;16.10;99.90;;;;;;5033908;28;20180;-81
2023/06/07 09:07:07;;;;;;;14.23;8.93;;;16.10;99.90;;;;;;5033694;28;20187;-81
2023/06/07 09:09:36;;;;;;;13.87;8.90;;;16.10;99.90;;;;;;5035169;28;20169;-79
2023/06/07 09:12:02;;;;;;;15.23;10.27;;;16.10;99.90;;;;;;5035279;28;20204;-81
2023/06/07 09:14:31;;;;;;;19.47;9.13;;;16.10;99.90;;;;;;5034744;28;20638;-81
2023/06/07 09:16:58;;;;;;;18.30;10.53;;;16.10;99.90;;;;;;5034699;28;20268;-81
2023/06/07 09:19:33;;;;;;;11.80;9.10;;;16.00;99.90;;;;;;5033558;28;20207;-81
2023/06/07 09:25:21;;;;;;;15.93;10.63;;;16.00;99.90;;;;;;5035415;28;20247;-81
2023/06/07 09:27:49;;;;;;;15.80;9.63;;;16.00;99.90;;;;;;5036529;28;20208;-80
2023/06/07 09:30:17;;;;;;;14.50;9.57;;;16.00;99.90;;;;;;5038347;28;20180;-80
2023/06/07 09:32:42;;;;;;;21.70;12.17;;;15.90;99.90;;;;;;5036251;28;20220;-80
2023/06/07 09:35:13;;;;;;;17.57;10.90;;;16.00;99.90;;;;;;5037273;28;20230;-81
2023/06/07 09:37:41;;;;;;;21.27;11.67;;;16.00;99.90;;;;;;5038796;28;20537;-78
2023/06/07 09:40:08;;;;;;;18.23;11.40;;;16.00;99.90;;;;;;5037271;28;20215;-81
2023/06/07 09:42:34;;;;;;;21.20;12.70;;;15.90;99.90;;;;;;5037285;28;20212;-81
2023/06/07 09:45:14;;;;;;;20.93;11.83;;;15.90;99.90;;;;;;5038588;28;20184;-81
2023/06/07 09:47:42;;;;;;;19.43;12.07;;;16.00;99.90;;;;;;5038237;28;20183;-82
2023/06/07 09:50:10;;;;;;;21.40;12.77;;;16.00;99.90;;;;;;5038899;28;20188;-81
2023/06/07 09:52:35;;;;;;;21.57;13.27;;;16.00;99.90;;;;;;5038395;28;20564;-82
2023/06/07 09:55:06;;;;;;;15.93;12.10;;;16.00;99.90;;;;;;5038475;28;20223;-81
2023/06/07 09:57:33;;;;;;;20.27;13.67;;;16.10;99.90;;;;;;5038747;28;20152;-81
2023/06/07 10:00:17;;;;;;;22.20;12.83;;;16.10;99.90;;;;;;5036471;28;20183;-81
2023/06/07 10:02:44;;;;;;;21.17;13.17;;;16.10;99.90;;;;;;5036641;28;20799;-81
2023/06/07 10:05:15;;;;;;;20.60;14.33;;;16.10;99.90;;;;;;5036825;28;20176;-81
2023/06/07 10:07:46;;;;;;;22.87;15.63;;;16.10;99.90;;;;;;5038064;28;20531;-80
2023/06/07 10:10:14;;;;;;;24.20;16.63;;;16.10;99.90;;;;;;5036792;28;20577;-81
2023/06/07 10:12:41;;;;;;;26.30;17.40;;;16.20;99.90;;;;;;5037226;28;20287;-80
2023/06/07 10:15:09;;;;;;;27.97;18.27;;;16.20;99.90;;;;;;5035996;28;20176;-80
2023/06/07 10:18:07;;;;;;;30.83;18.90;;;16.20;99.90;;;;;;5037560;28;20222;-81
2023/06/07 10:20:38;;;;;;;29.50;19.37;;;16.30;99.90;;;;;;5015536;28;20184;-80
2023/06/07 10:23:05;;;;;;;24.40;19.07;;;16.20;99.90;;;;;;5038028;28;20367;-80
2023/06/07 10:25:39;;;;;;;29.93;21.17;;;16.20;99.90;;;;;;5037199;28;20653;-81
2023/06/07 10:28:37;;;;;;;28.43;20.47;;;16.30;99.90;;;;;;5036626;28;20248;-81
2023/06/07 10:31:08;;;;;;;28.47;21.93;;;16.10;99.90;;;;;;5023057;28;20191;-81
2023/06/07 10:33:34;;;;;;;29.43;23.03;;;16.10;99.90;;;;;;5037543;28;20286;-81
2023/06/07 10:36:00;;;;;;;33.17;24.00;;;16.30;99.90;;;;;;5037977;28;20607;-81
2023/06/07 10:38:29;;;;;;;34.67;23.97;;;16.10;99.90;;;;;;5037823;28;20180;-81
2023/06/07 10:40:58;;;;;;;33.77;24.93;;;16.10;99.90;;;;;;5036849;28;20573;-80
2023/06/07 10:43:27;;;;;;;38.33;26.17;;;16.10;99.90;;;;;;5037671;28;20330;-81
2023/06/07 10:46:28;;;;;;;40.00;24.17;;;16.10;99.90;;;;;;5037998;28;20664;-81
2023/06/07 10:48:56;;;;;;;35.87;24.67;;;16.10;99.90;;;;;;4996665;28;20264;-81
2023/06/07 10:51:43;;;;;;;37.13;25.10;;;16.10;99.90;;;;;;5031007;28;20200;-81
2023/06/07 10:54:09;;;;;;;33.37;23.57;;;16.10;99.90;;;;;;5031415;28;20587;-82
2023/06/07 10:56:36;;;;;;;30.37;23.70;;;16.20;99.90;;;;;;5039048;28;20204;-81
2023/06/07 10:59:14;;;;;;;31.23;23.80;;;16.30;99.90;;;;;;5042789;28;20168;-81
2023/06/07 11:01:40;;;;;;;30.53;22.40;;;16.30;99.90;;;;;;5036680;28;20171;-79
2023/06/07 11:04:06;;;;;;;31.37;22.90;;;16.30;99.90;;;;;;5036979;28;20215;-81
2023/06/07 11:06:35;;;;;;;34.20;22.03;;;16.40;99.90;;;;;;5037459;28;20232;-81
2023/06/07 11:09:22;;;;;;;30.93;22.40;;;16.40;99.90;;;;;;5036045;28;20260;-81
2023/06/07 11:11:47;;;;;;;29.67;22.10;;;16.50;99.90;;;;;;5035680;28;20619;-81
2023/06/07 11:14:13;;;;;;;29.30;21.60;;;16.50;99.90;;;;;;5035728;28;20172;-81
2023/06/07 11:16:40;;;;;;;30.23;22.07;;;16.40;99.90;;;;;;5035424;28;20648;-81
2023/06/07 11:19:13;;;;;;;27.93;22.23;;;16.80;99.90;;;;;;5035956;28;20180;-81
2023/06/07 11:22:06;;;;;;;29.63;21.00;;;16.90;99.90;;;;;;5037768;28;20231;-81
2023/06/07 11:24:33;;;;;;;29.47;19.70;;;17.10;99.90;;;;;;5038531;28;20537;-81
2023/06/07 11:26:59;;;;;;;29.63;18.80;;;17.10;99.90;;;;;;5035679;28;20172;-81
2023/06/07 11:29:24;;;;;;;31.80;20.33;;;17.10;99.90;;;;;;5036535;28;20680;-80
2023/06/07 11:31:58;;;;;;;32.07;21.03;;;17.30;99.90;;;;;;5034996;28;20239;-80
2023/06/07 11:34:26;;;;;;;24.67;20.03;;;17.40;99.90;;;;;;5035045;28;20175;-81
2023/06/07 11:37:08;;;;;;;23.93;19.03;;;17.60;99.90;;;;;;5036667;28;20188;-81
2023/06/07 11:39:34;;;;;;;25.23;18.20;;;17.60;99.90;;;;;;5035215;28;20168;-80
2023/06/07 11:42:00;;;;;;;30.10;19.00;;;17.70;99.90;;;;;;5034664;28;20176;-80
2023/06/07 11:44:26;;;;;;;25.17;17.70;;;17.80;99.90;;;;;;5036202;28;20212;-81
2023/06/07 11:46:51;;;;;;;20.73;16.73;;;17.80;99.90;;;;;;5036588;28;20181;-79
2023/06/07 11:49:17;;;;;;;22.57;16.40;;;17.80;99.90;;;;;;5035944;28;20241;-81
2023/06/07 11:51:48;;;;;;;21.57;15.60;;;17.80;99.90;;;;;;5037064;28;20549;-81
2023/06/07 11:54:14;;;;;;;23.43;15.83;;;17.80;99.90;;;;;;5038187;28;20260;-81
2023/06/07 11:56:41;;;;;;;23.53;15.33;;;17.80;99.90;;;;;;5037240;28;20234;-81
2023/06/07 11:59:09;;;;;;;18.13;15.00;;;17.80;99.90;;;;;;5036210;28;20176;-81
2023/06/07 12:01:40;;;;;;;21.07;14.90;;;17.90;99.90;;;;;;5036693;28;20175;-81
2023/06/07 12:04:09;;;;;;;19.43;14.53;;;18.00;99.90;;;;;;5037050;28;20204;-82
2023/06/07 12:06:35;;;;;;;21.07;14.50;;;18.10;99.90;;;;;;5038041;28;20175;-82
2023/06/07 12:09:01;;;;;;;19.30;14.73;;;18.10;99.90;;;;;;5038861;28;20164;-81
2023/06/07 12:11:27;;;;;;;21.20;12.50;;;18.20;73.80;;;;;;5037950;28;20180;-81
2023/06/07 12:13:53;;;;;;;23.00;14.70;;;18.30;74.20;;;;;;5037494;28;20192;-80
2023/06/07 12:16:21;;;;;;;19.70;13.70;;;18.40;3.30;;;;;;5048750;28;20269;-81
2023/06/07 12:18:46;;;;;;;20.00;14.57;;;18.40;48.00;;;;;;5057371;28;20186;-80
2023/06/07 12:21:16;;;;;;;18.57;13.73;;;18.50;6.90;;;;;;5057509;28;20634;-81
2023/06/07 12:23:55;;;;;;;19.80;12.07;;;18.60;1.00;;;;;;5035764;28;20578;-81
2023/06/07 12:26:22;;;;;;;21.27;12.37;;;18.70;1.00;;;;;;5038048;28;20221;-81
2023/06/07 12:28:49;;;;;;;20.03;12.97;;;18.80;49.30;;;;;;5036518;28;20180;-81
2023/06/07 12:31:28;;;;;;;17.27;12.63;;;18.80;1.00;;;;;;5037607;28;20172;-81
2023/06/07 12:34:06;;;;;;;17.80;11.93;;;19.00;1.00;;;;;;5039921;28;20580;-83
2023/06/07 12:36:33;;;;;;;15.97;10.80;;;19.20;1.00;;;;;;5044238;28;20168;-81
2023/06/07 12:39:09;;;;;;;16.10;11.70;;;19.30;1.00;;;;;;5045681;28;20207;-82
2023/06/07 12:41:36;;;;;;;16.97;11.00;;;19.40;1.00;;;;;;5043427;28;20176;-81
2023/06/07 12:44:04;;;;;;;11.70;10.03;;;19.40;1.00;;;;;;5040838;28;20255;-81
2023/06/07 12:46:30;;;;;;;16.20;10.50;;;19.50;1.00;;;;;;5040885;28;20241;-80
2023/06/07 12:48:56;;;;;;;15.90;10.77;;;19.60;1.00;;;;;;5041932;28;20176;-81
2023/06/07 12:51:22;;;;;;;14.20;9.93;;;19.50;1.00;;;;;;5042583;28;20188;-83